Time;durP1;ratioP1;P1;durP2;ratioP2;P2;SDS_P1;SDS_P2;PMS_P1;PMS_P2;Temp;Humidity;BMP_temperature;BMP_pressure;BME280_temperature;BME280_humidity;BME280_pressure;Samples;Min_cycle;Max_cycle;Signal;HPM_P1;HPM_P2
2022/08/03 00:00:14;;;;;;;5.40;0.90;;;;;;;21.03;100.00;97640.63;5113935;27;20146;-93
2022/08/03 00:02:39;;;;;;;2.88;0.55;;;;;;;21.01;100.00;97636.41;5112569;28;20402;-94
2022/08/03 00:05:07;;;;;;;1.75;0.50;;;;;;;20.87;100.00;97632.88;5109816;28;20016;-94
2022/08/03 00:07:33;;;;;;;2.13;0.60;;;;;;;21.31;100.00;97625.44;5099036;28;20044;-93
2022/08/03 00:09:58;;;;;;;2.72;0.70;;;;;;;21.19;100.00;97631.59;5101231;27;20560;-93
2022/08/03 00:12:24;;;;;;;3.38;0.65;;;;;;;21.27;100.00;97629.25;5101375;28;20028;-94
2022/08/03 00:14:52;;;;;;;2.92;0.70;;;;;;;21.07;100.00;97628.00;5096185;28;20055;-94
2022/08/03 00:17:18;;;;;;;4.68;0.68;;;;;;;21.39;100.00;97633.69;5099113;28;20486;-93
2022/08/03 00:19:44;;;;;;;4.15;0.82;;;;;;;21.29;100.00;97630.00;5098839;28;20039;-91
2022/08/03 00:22:12;;;;;;;2.30;0.70;;;;;;;21.21;100.00;97624.38;5097508;28;20032;-91
2022/08/03 00:24:38;;;;;;;2.40;0.70;;;;;;;21.50;100.00;97632.91;5097519;28;20046;-94
2022/08/03 00:27:03;;;;;;;1.83;0.50;;;;;;;20.96;100.00;97619.00;5102974;28;20035;-94
2022/08/03 00:29:29;;;;;;;2.17;0.50;;;;;;;21.34;100.00;97624.38;5101673;28;20041;-94
2022/08/03 00:31:58;;;;;;;2.88;0.70;;;;;;;21.10;100.00;97614.56;5098504;28;20043;-94
2022/08/03 00:34:23;;;;;;;1.20;0.43;;;;;;;21.07;100.00;97614.75;5101444;28;20070;-94
2022/08/03 00:36:52;;;;;;;3.28;0.73;;;;;;;20.69;100.00;97621.75;5097273;28;20376;-94
2022/08/03 00:39:19;;;;;;;2.10;0.60;;;;;;;20.87;100.00;97617.00;5118794;27;20092;-93
2022/08/03 00:41:45;;;;;;;2.60;0.65;;;;;;;21.08;100.00;97617.28;5096178;28;20035;-94
2022/08/03 00:44:13;;;;;;;1.20;0.40;;;;;;;21.01;100.00;97612.53;5096899;27;20530;-93
2022/08/03 00:46:39;;;;;;;1.38;0.43;;;;;;;21.17;100.00;97612.28;5096907;28;20035;-92
2022/08/03 00:49:07;;;;;;;2.30;0.65;;;;;;;21.17;100.00;97609.66;5095261;28;20436;-93
2022/08/03 00:51:33;;;;;;;1.60;0.50;;;;;;;21.26;100.00;97601.03;5094552;28;20024;-93
2022/08/03 00:54:04;;;;;;;2.58;0.50;;;;;;;21.12;100.00;97592.25;5097056;28;20674;-93
2022/08/03 00:56:31;;;;;;;2.70;0.50;;;;;;;21.31;100.00;97580.34;5096270;28;20116;-94
2022/08/03 00:58:57;;;;;;;3.65;0.60;;;;;;;21.08;100.00;97584.63;5098203;28;20034;-93
2022/08/03 01:01:23;;;;;;;1.92;0.50;;;;;;;21.09;100.00;97578.38;5097136;28;21058;-93
2022/08/03 01:03:52;;;;;;;2.95;0.65;;;;;;;21.01;100.00;97578.91;5096162;28;20023;-93
2022/08/03 01:06:44;;;;;;;2.05;0.55;;;;;;;21.12;100.00;97578.16;5098323;28;20034;-93
2022/08/03 01:09:27;;;;;;;1.97;0.47;;;;;;;20.93;100.00;97574.19;5085825;28;20040;-93
2022/08/03 01:12:07;;;;;;;2.78;0.65;;;;;;;21.05;100.00;97582.22;5095233;28;20384;-94
2022/08/03 01:14:59;;;;;;;1.33;0.47;;;;;;;20.95;100.00;97574.91;5092868;28;20040;-93
2022/08/03 01:17:54;;;;;;;3.80;0.60;;;;;;;21.02;100.00;97579.78;5090373;28;20027;-91
2022/08/03 01:20:22;;;;;;;1.60;0.52;;;;;;;20.70;100.00;97561.69;5091269;28;20031;-93
2022/08/03 01:22:57;;;;;;;1.52;0.32;;;;;;;20.86;100.00;97567.59;5092565;28;20128;-92
2022/08/03 01:25:45;;;;;;;1.60;0.40;;;;;;;20.98;100.00;97572.03;5092763;28;20070;-93
2022/08/03 01:28:49;;;;;;;2.15;0.40;;;;;;;21.05;100.00;97574.25;5088958;28;20032;-93
2022/08/03 01:31:20;;;;;;;2.17;0.40;;;;;;;21.00;100.00;97573.72;5013204;28;20504;-93
2022/08/03 01:33:51;;;;;;;2.67;0.50;;;;;;;20.86;100.00;97564.94;5014262;28;20045;-94
2022/08/03 01:36:23;;;;;;;2.90;0.50;;;;;;;20.88;100.00;97563.03;5031724;28;20040;-93
2022/08/03 01:39:00;;;;;;;2.28;0.60;;;;;;;20.77;100.00;97565.59;5031595;28;21907;-93
2022/08/03 01:41:31;;;;;;;1.30;0.40;;;;;;;20.78;100.00;97564.66;5030793;28;20044;-93
2022/08/03 01:43:58;;;;;;;2.70;0.47;;;;;;;20.80;100.00;97568.03;5012690;28;20823;-93
2022/08/03 01:46:25;;;;;;;3.08;0.75;;;;;;;20.57;100.00;97565.16;5013477;28;20045;-94
2022/08/03 01:48:51;;;;;;;3.20;0.60;;;;;;;20.95;100.00;97582.00;5011950;28;20049;-94
2022/08/03 01:51:19;;;;;;;2.60;0.70;;;;;;;20.76;100.00;97567.38;5025032;28;20032;-94
2022/08/03 01:53:47;;;;;;;2.00;0.45;;;;;;;20.57;100.00;97561.63;5029078;28;20102;-94
2022/08/03 01:56:14;;;;;;;2.47;0.50;;;;;;;20.77;100.00;97568.25;5032572;28;20049;-94
2022/08/03 01:58:41;;;;;;;2.38;0.50;;;;;;;20.79;100.00;97561.91;5033550;28;20475;-93
2022/08/03 02:01:09;;;;;;;2.20;0.35;;;;;;;20.80;100.00;97558.28;5036130;28;20077;-93
2022/08/03 02:03:39;;;;;;;2.25;0.50;;;;;;;20.97;100.00;97561.53;5021780;28;20028;-93
2022/08/03 02:06:08;;;;;;;2.38;0.50;;;;;;;20.76;100.00;97562.09;5086945;28;20039;-96
2022/08/03 02:08:34;;;;;;;1.52;0.47;;;;;;;20.98;100.00;97560.59;5102753;28;20020;-94
2022/08/03 02:11:02;;;;;;;2.20;0.52;;;;;;;20.98;100.00;97561.44;5098357;28;20023;-96
2022/08/03 02:13:29;;;;;;;1.98;0.40;;;;;;;21.11;100.00;97550.81;5099838;28;20036;-95
2022/08/03 02:15:56;;;;;;;1.63;0.55;;;;;;;21.18;100.00;97555.66;5101995;28;20028;-95
2022/08/03 02:18:24;;;;;;;2.33;0.63;;;;;;;21.09;100.00;97563.31;5099390;28;20132;-96
2022/08/03 02:20:51;;;;;;;2.15;0.57;;;;;;;21.36;100.00;97564.94;5102032;28;20161;-94
2022/08/03 02:23:17;;;;;;;1.70;0.40;;;;;;;21.08;100.00;97560.78;5101573;28;20077;-95
2022/08/03 02:25:57;;;;;;;1.70;0.40;;;;;;;21.03;100.00;97562.91;5120062;27;20031;-94
2022/08/03 02:28:39;;;;;;;1.92;0.47;;;;;;;21.20;100.00;97574.97;5105164;28;20023;-95
2022/08/03 02:31:15;;;;;;;1.75;0.30;;;;;;;20.77;100.00;97568.25;5104148;28;20054;-94
2022/08/03 02:33:47;;;;;;;1.02;0.38;;;;;;;20.81;100.00;97564.44;5100130;28;20050;-96
2022/08/03 02:36:14;;;;;;;1.15;0.40;;;;;;;20.56;100.00;97562.63;5098305;28;20020;-93
2022/08/03 02:38:42;;;;;;;2.33;0.40;;;;;;;20.71;100.00;97558.06;5102490;28;20024;-92
2022/08/03 02:41:14;;;;;;;1.20;0.40;;;;;;;20.55;100.00;97552.97;5099954;28;20055;-94
2022/08/03 02:43:44;;;;;;;2.03;0.40;;;;;;;20.89;100.00;97550.63;5115694;27;20015;-96
2022/08/03 02:46:13;;;;;;;2.63;0.55;;;;;;;20.83;100.00;97556.38;5101420;28;20100;-95
2022/08/03 02:48:41;;;;;;;2.45;0.60;;;;;;;21.09;100.00;97568.63;5103717;28;20815;-92
2022/08/03 02:51:08;;;;;;;5.15;0.55;;;;;;;20.60;100.00;97557.00;5102991;28;20023;-94
2022/08/03 02:53:35;;;;;;;3.40;0.60;;;;;;;20.75;100.00;97565.72;5105523;28;20364;-95
2022/08/03 02:56:02;;;;;;;1.42;0.47;;;;;;;20.87;100.00;97566.63;5104451;28;20571;-95
2022/08/03 02:58:32;;;;;;;0.88;0.30;;;;;;;20.77;100.00;97566.44;5101864;28;20032;-94
2022/08/03 03:01:00;;;;;;;1.05;0.40;;;;;;;20.62;100.00;97580.72;5105256;28;20027;-96
2022/08/03 03:03:26;;;;;;;2.30;0.52;;;;;;;20.60;100.00;97593.25;5104441;28;20036;-96
2022/08/03 03:05:52;;;;;;;1.48;0.43;;;;;;;20.78;100.00;97586.69;5100697;28;20084;-96
2022/08/03 03:08:22;;;;;;;1.40;0.50;;;;;;;20.48;100.00;97583.47;5103286;28;20035;-93
2022/08/03 03:10:48;;;;;;;1.00;0.50;;;;;;;20.44;100.00;97583.66;5104594;28;20027;-93
2022/08/03 03:13:15;;;;;;;1.38;0.32;;;;;;;20.45;100.00;97579.25;5102441;28;20032;-94
2022/08/03 03:15:58;;;;;;;0.73;0.40;;;;;;;20.55;100.00;97587.41;5105648;28;20032;-93
2022/08/03 03:18:24;;;;;;;;;;;;;;;20.48;100.00;97583.47;5102810;28;20085;-94
2022/08/03 03:20:52;;;;;;;3.47;0.68;;;;;;;20.12;100.00;97576.13;5104984;28;19927;-94
2022/08/03 03:23:20;;;;;;;1.10;0.35;;;;;;;20.05;100.00;97568.69;5111081;28;20048;-92
2022/08/03 03:25:57;;;;;;;2.67;0.77;;;;;;;19.81;100.00;97573.81;5108446;28;20011;-93
2022/08/03 03:28:23;;;;;;;2.40;0.50;;;;;;;19.80;100.00;97578.25;5102080;28;20384;-92
2022/08/03 03:30:50;;;;;;;2.70;0.60;;;;;;;19.62;100.00;97574.97;5101573;28;20036;-93
2022/08/03 03:33:16;;;;;;;2.25;0.70;;;;;;;19.77;100.00;97579.25;5104780;28;20038;-93
2022/08/03 03:35:43;;;;;;;3.25;0.70;;;;;;;19.71;100.00;97569.09;5104691;28;20035;-96
2022/08/03 03:38:12;;;;;;;2.85;0.82;;;;;;;19.81;100.00;97571.19;5101992;28;20023;-92
2022/08/03 03:40:41;;;;;;;2.47;0.80;;;;;;;19.63;100.00;97575.84;5098791;28;20026;-93
2022/08/03 03:43:09;;;;;;;2.92;0.65;;;;;;;19.81;100.00;97582.59;5104606;28;20031;-92
2022/08/03 03:45:34;;;;;;;3.10;0.65;;;;;;;19.54;100.00;97579.91;5103119;28;20023;-92
2022/08/03 03:48:02;;;;;;;1.80;0.60;;;;;;;20.06;100.00;97573.88;5106029;28;20027;-94
2022/08/03 03:50:31;;;;;;;2.20;0.60;;;;;;;19.98;100.00;97576.19;5108847;28;20023;-92
2022/08/03 03:52:56;;;;;;;3.05;0.85;;;;;;;20.10;100.00;97575.38;5101961;28;20535;-92
2022/08/03 03:55:22;;;;;;;2.00;0.50;;;;;;;20.13;100.00;97569.03;5097257;28;20127;-96
2022/08/03 03:57:47;;;;;;;2.67;0.60;;;;;;;20.25;100.00;97580.56;5106090;27;20047;-93
2022/08/03 04:00:15;;;;;;;2.90;0.73;;;;;;;20.08;100.00;97574.63;5109168;28;20028;-95
2022/08/03 04:02:41;;;;;;;1.85;0.60;;;;;;;20.20;100.00;97572.13;5103994;27;20036;-94
2022/08/03 04:10:59;;;;;;;2.47;0.50;;;;;;;19.91;100.00;97591.63;5106626;28;20382;-93
2022/08/03 04:13:35;;;;;;;2.77;0.70;;;;;;;19.91;100.00;97581.03;5104633;28;20780;-96
2022/08/03 04:16:03;;;;;;;3.28;0.60;;;;;;;19.83;100.00;97578.03;5107354;28;20265;-95
2022/08/03 04:18:31;;;;;;;4.68;0.63;;;;;;;19.75;100.00;97565.31;5105620;28;20479;-95
2022/08/03 04:21:11;;;;;;;2.33;0.68;;;;;;;19.39;100.00;97563.25;5104884;28;20023;-95
2022/08/03 04:23:41;;;;;;;1.88;0.63;;;;;;;19.37;100.00;97570.41;5107259;28;20510;-94
2022/08/03 04:26:11;;;;;;;3.83;0.75;;;;;;;19.42;100.00;97573.63;5108460;28;20024;-96
2022/08/03 04:28:39;;;;;;;1.58;0.50;;;;;;;19.63;100.00;97581.13;5105673;28;20055;-96
2022/08/03 04:31:06;;;;;;;2.22;0.63;;;;;;;19.58;100.00;97581.41;5104610;28;20082;-94
2022/08/03 04:33:34;;;;;;;1.38;0.43;;;;;;;19.88;100.00;97577.75;5109235;28;20019;-95
2022/08/03 04:36:03;;;;;;;3.90;0.75;;;;;;;19.55;100.00;97593.03;5104169;28;20032;-94
2022/08/03 04:38:31;;;;;;;6.03;0.88;;;;;;;19.56;100.00;97594.72;5105172;28;20061;-95
2022/08/03 04:40:58;;;;;;;3.35;0.73;;;;;;;19.81;100.00;97582.59;5107858;28;20036;-96
2022/08/03 04:43:25;;;;;;;2.38;0.57;;;;;;;19.91;100.00;97593.41;5103000;28;20084;-95
2022/08/03 04:45:52;;;;;;;5.90;0.80;;;;;;;19.85;100.00;97585.91;5104513;27;20024;-96
2022/08/03 04:48:18;;;;;;;3.78;0.80;;;;;;;19.73;100.00;97601.56;5104809;28;20028;-92
2022/08/03 04:50:46;;;;;;;3.95;0.85;;;;;;;20.02;100.00;97598.00;5104330;28;20036;-93
2022/08/03 04:53:12;;;;;;;4.40;0.88;;;;;;;19.85;100.00;97597.31;5099106;28;20093;-93
2022/08/03 04:55:37;;;;;;;6.00;1.50;;;;;;;19.52;100.00;97603.81;5103580;28;20040;-93
2022/08/03 04:58:05;;;;;;;4.50;1.13;;;;;;;19.50;100.00;97603.06;5106257;28;20042;-92
2022/08/03 05:00:30;;;;;;;6.57;1.70;;;;;;;19.51;100.00;97602.13;5102003;28;20564;-92
2022/08/03 05:02:56;;;;;;;4.97;1.50;;;;;;;19.57;100.00;97607.00;5100454;28;20036;-92
2022/08/03 05:05:22;;;;;;;5.93;1.30;;;;;;;19.23;100.00;97610.94;5101612;28;20060;-92
2022/08/03 05:07:51;;;;;;;6.82;1.58;;;;;;;19.33;100.00;97616.50;5104344;28;20099;-94
2022/08/03 05:10:17;;;;;;;4.55;1.10;;;;;;;19.26;100.00;97606.34;5106441;28;20027;-94
2022/08/03 05:12:46;;;;;;;4.15;0.93;;;;;;;19.30;100.00;97619.34;5107651;28;20053;-93
2022/08/03 05:15:12;;;;;;;5.60;1.23;;;;;;;19.40;100.00;97616.03;5097946;28;20508;-93
2022/08/03 05:17:38;;;;;;;4.35;1.00;;;;;;;19.55;100.00;97619.47;5106478;28;20039;-93
2022/08/03 05:20:04;;;;;;;3.10;0.90;;;;;;;19.39;100.00;97616.97;5099644;28;20027;-93
2022/08/03 05:22:29;;;;;;;4.18;0.90;;;;;;;19.39;100.00;97622.25;5105113;28;20039;-96
2022/08/03 05:24:55;;;;;;;4.45;1.00;;;;;;;19.35;100.00;97620.75;5102785;28;20135;-95
2022/08/03 05:27:20;;;;;;;5.97;0.90;;;;;;;19.57;100.00;97632.63;5100178;28;20028;-95
2022/08/03 05:29:48;;;;;;;3.00;0.80;;;;;;;19.41;100.00;97633.56;5099736;28;20550;-94
2022/08/03 05:32:14;;;;;;;4.68;1.00;;;;;;;19.12;100.00;97631.91;5105981;28;20045;-92
2022/08/03 05:34:40;;;;;;;3.92;0.90;;;;;;;18.92;100.00;97629.56;5104655;28;20032;-95
2022/08/03 05:37:06;;;;;;;3.45;0.90;;;;;;;19.51;100.00;97640.94;5102192;28;20509;-92
2022/08/03 05:39:32;;;;;;;7.20;1.85;;;;;;;19.23;100.00;97638.25;5102870;28;20728;-96
2022/08/03 05:41:58;;;;;;;4.22;1.05;;;;;;;19.21;100.00;97640.13;5098072;28;20739;-94
2022/08/03 05:44:24;;;;;;;4.93;1.48;;;;;;;18.84;100.00;97644.16;5117061;27;20088;-95
2022/08/03 05:46:53;;;;;;;4.35;0.98;;;;;;;18.75;100.00;97642.91;5092926;28;20051;-94
2022/08/03 05:49:22;;;;;;;3.35;0.80;;;;;;;18.97;100.00;97652.19;5093111;28;20054;-93
2022/08/03 05:51:47;;;;;;;3.70;0.90;;;;;;;18.83;100.00;97645.06;5092807;28;20023;-93
2022/08/03 05:54:13;;;;;;;3.88;1.08;;;;;;;18.68;100.00;97647.72;5092841;28;21108;-92
2022/08/03 05:56:39;;;;;;;5.32;1.40;;;;;;;18.84;100.00;97647.63;5096700;28;20070;-94
2022/08/03 05:59:05;;;;;;;6.05;1.70;;;;;;;19.03;100.00;97657.13;5090039;28;20134;-93
2022/08/03 06:01:31;;;;;;;6.50;1.20;;;;;;;18.45;100.00;97658.78;5090159;28;20076;-94
2022/08/03 06:03:57;;;;;;;5.28;1.50;;;;;;;18.80;100.00;97655.84;5094268;28;20023;-93
2022/08/03 06:06:23;;;;;;;5.20;1.50;;;;;;;18.68;100.00;97655.63;5093332;28;20044;-95
2022/08/03 06:08:52;;;;;;;6.45;2.20;;;;;;;18.87;100.00;97650.13;5093832;28;20028;-94
2022/08/03 06:11:17;;;;;;;6.68;2.15;;;;;;;18.81;100.00;97661.03;5091716;28;20031;-95
2022/08/03 06:13:43;;;;;;;9.18;3.20;;;;;;;18.89;100.00;97663.25;5093795;28;20034;-94
2022/08/03 06:16:08;;;;;;;7.53;2.50;;;;;;;18.92;100.00;97663.91;5091432;28;20584;-95
2022/08/03 06:18:35;;;;;;;7.53;2.78;;;;;;;19.04;100.00;97672.88;5095534;28;20042;-95
2022/08/03 06:21:02;;;;;;;8.40;2.58;;;;;;;18.97;100.00;97668.91;5091685;28;20161;-96
2022/08/03 06:23:28;;;;;;;6.88;2.53;;;;;;;18.94;100.00;97669.06;5109236;27;20047;-95
2022/08/03 06:25:54;;;;;;;7.50;2.30;;;;;;;18.87;100.00;97673.00;5093401;28;20028;-95
2022/08/03 06:28:20;;;;;;;6.30;2.58;;;;;;;19.50;100.00;97677.13;5092277;28;20028;-95
2022/08/03 06:30:45;;;;;;;8.88;3.00;;;;;;;18.80;100.00;97680.44;5096709;28;20063;-96
2022/08/03 06:33:11;;;;;;;7.22;2.08;;;;;;;19.15;100.00;97668.72;5098118;28;20503;-96
2022/08/03 06:35:37;;;;;;;6.18;1.60;;;;;;;19.24;100.00;97670.81;5093503;28;20384;-95
2022/08/03 06:38:03;;;;;;;5.82;1.48;;;;;;;19.28;100.00;97670.50;5096616;28;20594;-94
2022/08/03 06:40:30;;;;;;;6.35;1.50;;;;;;;19.33;100.00;97664.97;5095560;28;20073;-95
2022/08/03 06:43:00;;;;;;;4.63;1.30;;;;;;;19.22;100.00;97662.97;5095828;28;20028;-94
2022/08/03 06:45:27;;;;;;;5.43;1.20;;;;;;;18.70;100.00;97659.03;5096040;28;20031;-95
2022/08/03 06:48:05;;;;;;;5.70;1.30;;;;;;;19.06;100.00;97668.34;5092695;28;20024;-95
2022/08/03 06:50:31;;;;;;;6.43;1.20;;;;;;;19.35;100.00;97663.06;5097797;28;20024;-95
2022/08/03 06:53:05;;;;;;;5.65;1.40;;;;;;;19.19;100.00;97654.38;5109825;28;20024;-96
2022/08/03 06:55:31;;;;;;;5.25;1.20;;;;;;;19.18;100.00;97656.19;5095133;22;20057;-96
2022/08/03 06:57:57;;;;;;;5.25;1.35;;;;;;;19.37;100.00;97649.72;5035643;28;20151;-94
2022/08/03 07:00:23;;;;;;;7.40;1.30;;;;;;;19.35;100.00;97672.78;5041392;28;20036;-95
2022/08/03 07:02:49;;;;;;;4.85;1.40;;;;;;;19.40;100.00;97666.25;5037044;28;20395;-92
2022/08/03 07:05:16;;;;;;;8.07;1.73;;;;;;;19.69;100.00;97665.38;5040245;28;20017;-95
2022/08/03 07:07:42;;;;;;;6.43;1.40;;;;;;;19.37;100.00;97665.59;5056950;28;20036;-93
2022/08/03 07:10:10;;;;;;;6.13;1.52;;;;;;;19.31;100.00;97658.06;5040434;28;20025;-96
2022/08/03 07:12:36;;;;;;;5.63;1.38;;;;;;;19.74;100.00;97674.69;5037169;28;20056;-96
2022/08/03 07:15:03;;;;;;;6.47;1.30;;;;;;;19.67;100.00;97670.75;5042155;28;20102;-94
2022/08/03 07:17:32;;;;;;;5.82;1.60;;;;;;;19.69;100.00;97682.06;5043826;28;20056;-96
2022/08/03 07:19:58;;;;;;;9.18;1.70;;;;;;;19.61;100.00;97679.94;5045624;28;20116;-91
2022/08/03 07:22:23;;;;;;;7.13;1.70;;;;;;;19.53;100.00;97676.91;5039443;28;20174;-93
2022/08/03 07:24:49;;;;;;;7.43;1.95;;;;;;;19.40;100.00;97697.13;5043082;28;20032;-95
2022/08/03 07:27:15;;;;;;;8.30;1.60;;;;;;;19.20;100.00;97688.63;5042165;28;20572;-95
2022/08/03 07:29:41;;;;;;;5.85;1.40;;;;;;;19.45;100.00;97729.44;5047824;28;20035;-93
2022/08/03 07:32:06;;;;;;;6.93;1.35;;;;;;;19.78;100.00;97688.59;5036515;28;20037;-93
2022/08/03 07:34:32;;;;;;;5.07;1.45;;;;;;;19.79;100.00;97690.25;5036668;28;20029;-92
2022/08/03 07:36:57;;;;;;;6.30;1.65;;;;;;;19.82;100.00;97676.91;5035451;28;20025;-95
2022/08/03 07:39:23;;;;;;;7.55;1.65;;;;;;;19.58;100.00;97684.53;5038963;28;20032;-92
2022/08/03 07:41:52;;;;;;;10.07;1.83;;;;;;;19.71;100.00;97697.88;5037796;28;20028;-91
2022/08/03 07:44:18;;;;;;;8.95;2.30;;;;;;;19.48;100.00;97694.03;5053875;28;20021;-93
2022/08/03 07:46:44;;;;;;;7.78;1.70;;;;;;;19.53;100.00;97686.66;5039500;28;20480;-94
2022/08/03 07:49:10;;;;;;;5.45;1.35;;;;;;;19.31;100.00;97687.13;5037391;28;20040;-94
2022/08/03 07:51:39;;;;;;;6.15;1.60;;;;;;;19.44;100.00;97681.00;5040214;28;20634;-95
2022/08/03 07:54:05;;;;;;;4.65;1.40;;;;;;;19.55;100.00;97690.88;5057199;28;20653;-96
2022/08/03 07:56:33;;;;;;;7.85;1.50;;;;;;;19.42;100.00;97684.69;5026751;28;21366;-96
2022/08/03 07:58:59;;;;;;;7.65;1.80;;;;;;;19.51;100.00;97699.09;5038898;28;20447;-94
2022/08/03 08:01:25;;;;;;;7.22;1.65;;;;;;;19.77;100.00;97690.38;5035881;28;20102;-91
2022/08/03 08:03:51;;;;;;;5.95;1.60;;;;;;;19.38;100.00;97696.38;5040053;28;20037;-93
2022/08/03 08:06:16;;;;;;;7.00;1.70;;;;;;;19.51;100.00;97699.09;5032528;28;20078;-93
2022/08/03 08:08:42;;;;;;;7.07;1.92;;;;;;;19.53;100.00;97702.53;5037182;28;20101;-92
2022/08/03 08:11:08;;;;;;;8.10;1.80;;;;;;;20.07;100.00;97710.56;5040220;28;20032;-94
2022/08/03 08:13:37;;;;;;;7.90;1.48;;;;;;;20.35;100.00;97708.75;5046276;28;20029;-93
2022/08/03 08:16:03;;;;;;;10.10;1.83;;;;;;;20.35;100.00;97707.91;5036643;28;20221;-94
2022/08/03 08:18:29;;;;;;;5.68;1.40;;;;;;;20.60;100.00;97720.38;5045415;28;20033;-96
2022/08/03 08:20:55;;;;;;;7.15;2.00;;;;;;;20.12;100.00;97719.06;5041009;28;20039;-93
2022/08/03 08:23:23;;;;;;;8.48;1.58;;;;;;;20.13;100.00;97720.75;5047032;28;20033;-94
2022/08/03 08:25:50;;;;;;;6.40;1.58;;;;;;;20.26;100.00;97715.53;5037316;28;20021;-92
2022/08/03 08:28:17;;;;;;;6.72;1.50;;;;;;;19.90;100.00;97727.53;5041750;28;20111;-95
2022/08/03 08:30:42;;;;;;;6.97;1.90;;;;;;;19.95;100.00;97727.22;5052086;28;20063;-93
2022/08/03 08:33:08;;;;;;;6.15;1.60;;;;;;;20.27;100.00;97729.59;5050089;28;20033;-96
2022/08/03 08:35:34;;;;;;;9.13;1.70;;;;;;;20.34;100.00;97736.19;5050015;28;20060;-94
2022/08/03 08:38:00;;;;;;;5.40;1.30;;;;;;;20.38;100.00;97737.69;5047184;28;20059;-96
2022/08/03 08:40:27;;;;;;;6.47;1.40;;;;;;;20.39;100.00;97747.34;5046581;28;20036;-96
2022/08/03 08:42:53;;;;;;;8.32;1.65;;;;;;;20.23;100.00;97750.13;5043730;28;20096;-95
2022/08/03 08:45:19;;;;;;;8.73;1.63;;;;;;;20.72;100.00;97727.53;5046331;28;20457;-96
2022/08/03 08:47:47;;;;;;;6.90;1.63;;;;;;;20.43;100.00;97737.38;5045074;28;20017;-96
2022/08/03 08:50:18;;;;;;;7.05;1.48;;;;;;;20.38;100.00;97735.03;5044623;28;20025;-93
2022/08/03 08:52:46;;;;;;;7.38;1.92;;;;;;;21.21;100.00;97738.41;5042409;28;20121;-93
2022/08/03 08:55:19;;;;;;;7.55;1.60;;;;;;;20.55;100.00;97746.31;5042152;28;20073;-96
2022/08/03 08:58:08;;;;;;;7.80;2.08;;;;;;;20.39;100.00;97747.34;5039350;28;20068;-94
2022/08/03 09:00:34;;;;;;;6.20;1.77;;;;;;;21.01;100.00;97751.22;5045475;28;20427;-92
2022/08/03 09:03:00;;;;;;;6.53;1.92;;;;;;;20.77;100.00;97745.78;5040665;28;20027;-94
2022/08/03 09:05:26;;;;;;;5.35;1.55;;;;;;;20.28;100.00;97753.31;5040283;28;20036;-92
2022/08/03 09:07:52;;;;;;;8.68;1.70;;;;;;;21.01;100.00;97748.56;5042481;28;20044;-94
2022/08/03 09:10:20;;;;;;;7.70;1.85;;;;;;;20.49;100.00;97755.53;5035811;28;20025;-94
2022/08/03 09:12:48;;;;;;;7.07;1.60;;;;;;;20.90;100.00;97743.97;5037003;28;20199;-92
2022/08/03 09:15:25;;;;;;;8.55;1.70;;;;;;;20.41;100.00;97755.19;5037019;28;20037;-95
2022/08/03 09:17:53;;;;;;;6.72;1.80;;;;;;;20.92;100.00;97743.91;5043966;28;20025;-93
2022/08/03 09:20:20;;;;;;;7.85;1.42;;;;;;;20.94;100.00;97758.72;5042667;28;20029;-92
2022/08/03 09:23:03;;;;;;;6.68;1.80;;;;;;;21.05;100.00;97758.00;5042562;28;20163;-93
2022/08/03 09:25:31;;;;;;;;;;;;;;;20.59;100.00;97750.47;5031142;28;20473;-93
2022/08/03 09:28:36;;;;;;;8.98;1.90;;;;;;;20.69;100.00;97751.56;5041413;28;19916;-93
2022/08/03 09:31:02;;;;;;;5.75;1.70;;;;;;;20.69;100.00;97756.88;5040287;28;20037;-95
2022/08/03 09:33:29;;;;;;;7.25;1.80;;;;;;;20.88;100.00;97753.00;5035576;28;20029;-96
2022/08/03 09:35:57;;;;;;;7.57;1.90;;;;;;;20.98;100.00;97754.06;5039459;28;20029;-94
2022/08/03 09:38:26;;;;;;;10.45;1.98;;;;;;;20.81;100.00;97752.56;5037856;28;20400;-94
2022/08/03 09:40:56;;;;;;;7.25;1.60;;;;;;;20.85;100.00;97766.44;5043280;28;20029;-93
2022/08/03 09:43:26;;;;;;;8.63;1.65;;;;;;;21.06;100.00;97766.81;5037060;28;20160;-92
2022/08/03 09:46:03;;;;;;;9.50;1.88;;;;;;;20.87;100.00;97775.16;5038393;28;20033;-93
2022/08/03 09:48:34;;;;;;;7.45;1.88;;;;;;;20.52;100.00;97775.66;5040466;28;20042;-93
2022/08/03 09:51:03;;;;;;;7.15;1.42;;;;;;;21.19;100.00;97762.38;5037654;28;20364;-95
2022/08/03 09:53:29;;;;;;;8.52;1.85;;;;;;;20.83;100.00;97785.09;5036828;28;20033;-95
2022/08/03 09:56:02;;;;;;;9.98;1.75;;;;;;;21.61;100.00;97772.78;5042755;28;20548;-94
2022/08/03 09:58:30;;;;;;;;;;;;;;;21.20;100.00;97779.16;5033362;28;20079;-93
2022/08/03 10:00:59;;;;;;;7.85;2.17;;;;;;;21.03;100.00;97782.91;5037445;28;19912;-93
2022/08/03 10:03:30;;;;;;;7.90;1.85;;;;;;;21.37;100.00;97777.97;5032450;28;20041;-92
2022/08/03 10:05:56;;;;;;;6.30;1.63;;;;;;;21.62;100.00;97767.38;5044357;28;20102;-94
2022/08/03 10:08:22;;;;;;;8.85;1.98;;;;;;;21.46;100.00;97767.56;5038320;28;20033;-95
2022/08/03 10:10:49;;;;;;;8.00;1.80;;;;;;;21.43;100.00;97774.88;5043039;28;20059;-95
2022/08/03 10:13:18;;;;;;;6.15;1.67;;;;;;;21.44;100.00;97764.16;5040947;28;20032;-94
2022/08/03 10:15:45;;;;;;;6.75;1.75;;;;;;;21.12;100.00;97771.69;5036820;28;20036;-94
2022/08/03 10:18:12;;;;;;;6.95;1.75;;;;;;;21.28;100.00;97766.19;5042085;28;20065;-94
2022/08/03 10:21:06;;;;;;;6.22;1.77;;;;;;;22.56;100.00;97769.59;5038247;28;20029;-94
2022/08/03 10:23:37;;;;;;;6.05;1.88;;;;;;;23.27;100.00;97783.78;5050547;28;20040;-94
2022/08/03 10:26:06;;;;;;;9.98;2.00;;;;;;;22.90;100.00;97791.84;5036217;28;20017;-93
2022/08/03 10:28:36;;;;;;;8.68;1.98;;;;;;;23.02;100.00;97792.75;5043259;28;20068;-94
2022/08/03 10:31:06;;;;;;;7.43;1.80;;;;;;;22.42;100.00;97789.19;5036356;28;20111;-92
2022/08/03 10:33:36;;;;;;;11.20;2.20;;;;;;;21.75;100.00;97788.63;5036771;28;20131;-94
2022/08/03 10:36:03;;;;;;;9.25;2.13;;;;;;;22.31;100.00;97779.31;5040254;28;20060;-94
2022/08/03 10:38:31;;;;;;;6.55;1.73;;;;;;;;;;5042352;28;20035;-94
2022/08/03 10:40:59;;;;;;;8.57;2.38;;;;;;;22.88;100.00;97788.47;5041513;28;20484;-94
2022/08/03 10:43:35;;;;;;;7.35;1.85;;;;;;;23.41;100.00;97793.34;5043440;28;20060;-95
2022/08/03 10:46:06;;;;;;;6.60;1.90;;;;;;;23.80;100.00;97785.00;5039821;28;20495;-95
2022/08/03 10:48:34;;;;;;;8.45;2.10;;;;;;;24.52;100.00;97789.91;5043926;28;20060;-96
2022/08/03 10:51:00;;;;;;;7.32;2.10;;;;;;;23.61;100.00;97788.28;5035533;28;20033;-95
2022/08/03 10:53:38;;;;;;;5.80;1.80;;;;;;;24.45;100.00;97799.38;5042150;28;20041;-95
2022/08/03 10:58:50;;;;;;;6.30;1.70;;;;;;;22.96;100.00;97798.50;5047362;28;20040;-93
2022/08/03 11:01:37;;;;;;;9.05;2.10;;;;;;;21.78;100.00;97798.13;5049553;28;20404;-95
2022/08/03 11:04:03;;;;;;;6.78;1.70;;;;;;;21.52;100.00;97807.88;5029913;28;20040;-94
2022/08/03 11:06:28;;;;;;;8.13;1.90;;;;;;;22.55;100.00;97805.13;5044184;28;20127;-95
2022/08/03 11:09:09;;;;;;;9.05;2.30;;;;;;;22.50;100.00;97808.09;5039356;28;20120;-95
2022/08/03 11:11:35;;;;;;;8.20;2.15;;;;;;;21.84;100.00;97805.69;5048137;28;20168;-95
2022/08/03 11:14:12;;;;;;;9.15;2.08;;;;;;;22.26;100.00;97802.72;5042826;28;20131;-94
2022/08/03 11:17:02;;;;;;;11.60;2.35;;;;;;;21.80;100.00;97806.84;5034846;28;20079;-94
2022/08/03 11:19:45;;;;;;;8.20;2.17;;;;;;;21.74;100.00;97804.63;5024116;28;20037;-95
2022/08/03 11:22:12;;;;;;;;;;;;;;;21.71;100.00;97792.44;5042610;28;20071;-92
2022/08/03 11:24:50;;;;;;;8.55;2.20;;;;;;;23.31;100.00;97803.84;5040518;28;20364;-92
2022/08/03 11:27:34;;;;;;;9.80;2.28;;;;;;;21.77;100.00;97802.59;5044937;28;20040;-95
2022/08/03 11:30:14;;;;;;;7.65;2.10;;;;;;;21.51;100.00;97800.91;5043889;28;20166;-93
2022/08/03 11:32:40;;;;;;;8.50;1.98;;;;;;;22.05;100.00;97807.78;5042988;28;20166;-94
2022/08/03 11:35:11;;;;;;;6.63;1.73;;;;;;;21.55;100.00;97807.72;5040808;28;20725;-91
2022/08/03 11:37:55;;;;;;;7.40;2.05;;;;;;;21.54;100.00;97803.38;5048040;28;20066;-92
2022/08/03 11:40:40;;;;;;;7.55;1.90;;;;;;;21.37;100.00;97805.34;5044716;28;20964;-93
2022/08/03 11:43:26;;;;;;;7.95;1.90;;;;;;;23.15;100.00;97803.31;5044886;28;20135;-93